PWSweather.com
Personal Weather Stations
Station Observations
KCTCOLEB1
Sandy Brook, Colebrook, CT 06021

Sandy BrookColebrook, CT 06021

Lat: 42.0018, Lon: -73.0825

Elevation: 935

Station Type: Davis Vantage Pro2 + Solar + UV

Latest ConditionsUpdated 11:20:00 PM EDT Friday, Oct 18, 2019
Currently Today's Max Today's Min Today's Average
Temperature 42.9°F6.1°C 51.9°F11.1°C 42.9°F6.1°C 46.7°F8.2°C
Dew Point 37.5°F3.1°C 43.7°F6.5°C 37.2°F2.9°C 40.9°F4.9°C
Winds Calm Calm 4.6 mph -7.4 kmh - - 2.2 mph 3.5 kmh
Wind Gusts 2.3 mph3.7 kmh 11.5 mph18.5 kmh - -
Humidity 81% 89% 70% 80%
Pressure 29.95 in1014.2 mb 29.95 in1014.2 mb 29.48 in998.3 mb -
Hour Temp Dew Point Humidity Winds Wind Gusts Pressure Precip Precip Rate Daily Precip Total
11:20 PM 42.9°F6.1°C 37.5°F3.1°C 81% Calm Calm 2.3 mph3.7 kmh 29.95 in1014.2 mb - 0.00 in0.0 mm 0.00 in0.0 mm
11:10 PM 42.9°F6.1°C 37.2°F2.9°C 80% Calm Calm 2.3 mph3.7 kmh 29.95 in1014.2 mb - 0.00 in0.0 mm 0.00 in0.0 mm
11:00 PM 43.0°F6.1°C 37.3°F2.9°C 80% Calm Calm 3.5 mph5.6 kmh 29.95 in1014.2 mb - 0.00 in0.0 mm 0.00 in0.0 mm
10:50 PM 43.1°F6.2°C 37.3°F2.9°C 80% 2.3 mph NW3.7 kmh NW 8.1 mph13.0 kmh 29.94 in1013.9 mb - 0.00 in0.0 mm 0.00 in0.0 mm
10:40 PM 43.2°F6.2°C 37.4°F3.0°C 80% 1.2 mph W1.9 kmh W 3.5 mph5.6 kmh 29.94 in1013.9 mb - 0.00 in0.0 mm 0.00 in0.0 mm
10:30 PM 43.3°F6.3°C 37.2°F2.9°C 79% 2.3 mph NNW3.7 kmh NNW 3.5 mph5.6 kmh 29.94 in1013.9 mb - 0.00 in0.0 mm 0.00 in0.0 mm
10:20 PM 43.4°F6.3°C 37.6°F3.1°C 80% 2.3 mph NNE3.7 kmh NNE 3.5 mph5.6 kmh 29.93 in1013.5 mb - 0.00 in0.0 mm 0.00 in0.0 mm
10:10 PM 43.5°F6.4°C 37.7°F3.2°C 80% 3.5 mph WNW5.6 kmh WNW 6.9 mph11.1 kmh 29.93 in1013.5 mb - 0.00 in0.0 mm 0.00 in0.0 mm
10:00 PM 43.5°F6.4°C 38.1°F3.4°C 81% 3.5 mph N5.6 kmh N 4.6 mph7.4 kmh 29.93 in1013.5 mb - 0.00 in0.0 mm 0.00 in0.0 mm
09:50 PM 43.6°F6.4°C 38.2°F3.4°C 81% 2.3 mph NNW3.7 kmh NNW 5.8 mph9.3 kmh 29.93 in1013.5 mb - 0.00 in0.0 mm 0.00 in0.0 mm
09:40 PM 43.6°F6.4°C 38.2°F3.4°C 81% 3.5 mph NNW5.6 kmh NNW 4.6 mph7.4 kmh 29.92 in1013.2 mb - 0.00 in0.0 mm 0.00 in0.0 mm
09:30 PM 43.8°F6.6°C 38.3°F3.5°C 81% 3.5 mph N5.6 kmh N 4.6 mph7.4 kmh 29.92 in1013.2 mb - 0.00 in0.0 mm 0.00 in0.0 mm
09:20 PM 43.9°F6.6°C 38.4°F3.6°C 81% 2.3 mph NW3.7 kmh NW 3.5 mph5.6 kmh 29.92 in1013.2 mb - 0.00 in0.0 mm 0.00 in0.0 mm
09:10 PM 44.0°F6.7°C 38.6°F3.7°C 81% 1.2 mph NNE1.9 kmh NNE 3.5 mph5.6 kmh 29.91 in1012.9 mb - 0.00 in0.0 mm 0.00 in0.0 mm
09:00 PM 44.2°F6.8°C 38.7°F3.7°C 81% 2.3 mph N3.7 kmh N 3.5 mph5.6 kmh 29.91 in1012.9 mb - 0.00 in0.0 mm 0.00 in0.0 mm
08:50 PM 44.4°F6.9°C 38.9°F3.8°C 81% 1.2 mph NE1.9 kmh NE 3.5 mph5.6 kmh 29.91 in1012.9 mb - 0.00 in0.0 mm 0.00 in0.0 mm
08:40 PM 44.5°F6.9°C 39.0°F3.9°C 81% 2.3 mph NNW3.7 kmh NNW 3.5 mph5.6 kmh 29.91 in1012.9 mb - 0.00 in0.0 mm 0.00 in0.0 mm
08:30 PM 44.5°F6.9°C 39.3°F4.1°C 82% 1.2 mph NW1.9 kmh NW 3.5 mph5.6 kmh 29.91 in1012.9 mb - 0.00 in0.0 mm 0.00 in0.0 mm
08:20 PM 44.6°F7.0°C 39.4°F4.1°C 82% 1.2 mph NNE1.9 kmh NNE 2.3 mph3.7 kmh 29.90 in1012.5 mb - 0.00 in0.0 mm 0.00 in0.0 mm
08:10 PM 44.7°F7.1°C 39.2°F4.0°C 81% 2.3 mph NW3.7 kmh NW 3.5 mph5.6 kmh 29.90 in1012.5 mb - 0.00 in0.0 mm 0.00 in0.0 mm
08:00 PM 44.9°F7.2°C 39.4°F4.1°C 81% 1.2 mph NNE1.9 kmh NNE 2.3 mph3.7 kmh 29.90 in1012.5 mb - 0.00 in0.0 mm 0.00 in0.0 mm
07:50 PM 45.0°F7.2°C 39.2°F4.0°C 80% 1.2 mph NW1.9 kmh NW 3.5 mph5.6 kmh 29.89 in1012.2 mb - 0.00 in0.0 mm 0.00 in0.0 mm
07:40 PM 45.1°F7.3°C 39.6°F4.2°C 81% 3.5 mph NNW5.6 kmh NNW 4.6 mph7.4 kmh 29.89 in1012.2 mb - 0.00 in0.0 mm 0.00 in0.0 mm
07:30 PM 45.2°F7.3°C 39.7°F4.3°C 81% 2.3 mph NNE3.7 kmh NNE 3.5 mph5.6 kmh 29.89 in1012.2 mb - 0.00 in0.0 mm 0.00 in0.0 mm
07:20 PM 45.2°F7.3°C 39.4°F4.1°C 80% 2.3 mph NNE3.7 kmh NNE 3.5 mph5.6 kmh 29.88 in1011.9 mb - 0.00 in0.0 mm 0.00 in0.0 mm
07:10 PM 45.2°F7.3°C 39.7°F4.3°C 81% 1.2 mph NE1.9 kmh NE 3.5 mph5.6 kmh 29.88 in1011.9 mb - 0.00 in0.0 mm 0.00 in0.0 mm
07:00 PM 45.3°F7.4°C 39.8°F4.3°C 81% 1.2 mph SE1.9 kmh SE 2.3 mph3.7 kmh 29.88 in1011.9 mb - 0.00 in0.0 mm 0.00 in0.0 mm
06:50 PM 45.4°F7.4°C 39.6°F4.2°C 80% 1.2 mph N1.9 kmh N 3.5 mph5.6 kmh 29.87 in1011.5 mb - 0.00 in0.0 mm 0.00 in0.0 mm
06:40 PM 45.5°F7.5°C 39.7°F4.3°C 80% 1.2 mph N1.9 kmh N 2.3 mph3.7 kmh 29.87 in1011.5 mb - 0.00 in0.0 mm 0.00 in0.0 mm
06:30 PM 45.6°F7.6°C 40.2°F4.6°C 81% 1.2 mph E1.9 kmh E 2.3 mph3.7 kmh 29.87 in1011.5 mb - 0.00 in0.0 mm 0.00 in0.0 mm
06:20 PM 45.8°F7.7°C 39.7°F4.3°C 79% 1.2 mph E1.9 kmh E 2.3 mph3.7 kmh 29.87 in1011.5 mb - 0.00 in0.0 mm 0.00 in0.0 mm
06:10 PM 45.9°F7.7°C 40.4°F4.7°C 81% 1.2 mph N1.9 kmh N 2.3 mph3.7 kmh 29.86 in1011.2 mb - 0.00 in0.0 mm 0.00 in0.0 mm
06:00 PM 46.0°F7.8°C 39.9°F4.4°C 79% 2.3 mph N3.7 kmh N 3.5 mph5.6 kmh 29.86 in1011.2 mb - 0.00 in0.0 mm 0.00 in0.0 mm
05:50 PM 46.1°F7.8°C 39.7°F4.3°C 78% 1.2 mph N1.9 kmh N 3.5 mph5.6 kmh 29.86 in1011.2 mb - 0.00 in0.0 mm 0.00 in0.0 mm
05:40 PM 46.5°F8.1°C 39.3°F4.1°C 76% 1.2 mph N1.9 kmh N 2.3 mph3.7 kmh 29.85 in1010.8 mb - 0.00 in0.0 mm 0.00 in0.0 mm
05:30 PM 46.8°F8.2°C 39.6°F4.2°C 76% 2.3 mph NNE3.7 kmh NNE 3.5 mph5.6 kmh 29.85 in1010.8 mb - 0.00 in0.0 mm 0.00 in0.0 mm
05:20 PM 47.0°F8.3°C 39.8°F4.3°C 76% 2.3 mph N3.7 kmh N 4.6 mph7.4 kmh 29.85 in1010.8 mb - 0.00 in0.0 mm 0.00 in0.0 mm
05:10 PM 47.0°F8.3°C 39.8°F4.3°C 76% 2.3 mph NNW3.7 kmh NNW 3.5 mph5.6 kmh 29.85 in1010.8 mb - 0.00 in0.0 mm 0.00 in0.0 mm
05:00 PM 47.2°F8.4°C 39.7°F4.3°C 75% 3.5 mph NNE5.6 kmh NNE 3.5 mph5.6 kmh 29.84 in1010.5 mb - 0.00 in0.0 mm 0.00 in0.0 mm
04:50 PM 47.4°F8.6°C 39.9°F4.4°C 75% 2.3 mph NNE3.7 kmh NNE 4.6 mph7.4 kmh 29.85 in1010.8 mb - 0.00 in0.0 mm 0.00 in0.0 mm
04:40 PM 47.5°F8.6°C 40.0°F4.4°C 75% 2.3 mph N3.7 kmh N 3.5 mph5.6 kmh 29.85 in1010.8 mb - 0.00 in0.0 mm 0.00 in0.0 mm
04:30 PM 47.7°F8.7°C 40.5°F4.7°C 76% 3.5 mph NNE5.6 kmh NNE 3.5 mph5.6 kmh 29.84 in1010.5 mb - 0.00 in0.0 mm 0.00 in0.0 mm
04:20 PM 47.9°F8.8°C 40.4°F4.7°C 75% 2.3 mph N3.7 kmh N 3.5 mph5.6 kmh 29.84 in1010.5 mb - 0.00 in0.0 mm 0.00 in0.0 mm
04:10 PM 48.2°F9.0°C 40.6°F4.8°C 75% 2.3 mph NNE3.7 kmh NNE 5.8 mph9.3 kmh 29.83 in1010.2 mb - 0.00 in0.0 mm 0.00 in0.0 mm
04:00 PM 48.4°F9.1°C 40.5°F4.7°C 74% 2.3 mph N3.7 kmh N 3.5 mph5.6 kmh 29.83 in1010.2 mb - 0.00 in0.0 mm 0.00 in0.0 mm
03:50 PM 48.6°F9.2°C 40.7°F4.8°C 74% 2.3 mph N3.7 kmh N 3.5 mph5.6 kmh 29.83 in1010.2 mb - 0.00 in0.0 mm 0.00 in0.0 mm
03:40 PM 48.9°F9.4°C 40.6°F4.8°C 73% 1.2 mph NE1.9 kmh NE 2.3 mph3.7 kmh 29.83 in1010.2 mb - 0.00 in0.0 mm 0.00 in0.0 mm
03:30 PM 49.1°F9.5°C 41.2°F5.1°C 74% 2.3 mph N3.7 kmh N 3.5 mph5.6 kmh 29.83 in1010.2 mb - 0.00 in0.0 mm 0.00 in0.0 mm
03:20 PM 49.3°F9.6°C 41.0°F5.0°C 73% 2.3 mph N3.7 kmh N 3.5 mph5.6 kmh 29.82 in1009.8 mb - 0.00 in0.0 mm 0.00 in0.0 mm
03:10 PM 49.5°F9.7°C 40.8°F4.9°C 72% 2.3 mph NNE3.7 kmh NNE 3.5 mph5.6 kmh 29.81 in1009.5 mb - 0.00 in0.0 mm 0.00 in0.0 mm
03:00 PM 49.6°F9.8°C 41.3°F5.2°C 73% 2.3 mph N3.7 kmh N 3.5 mph5.6 kmh 29.81 in1009.5 mb - 0.00 in0.0 mm 0.00 in0.0 mm
02:50 PM 49.1°F9.5°C 41.9°F5.5°C 76% 2.3 mph WSW3.7 kmh WSW 5.8 mph9.3 kmh 29.80 in1009.1 mb - 0.00 in0.0 mm 0.00 in0.0 mm
02:40 PM 48.7°F9.3°C 41.1°F5.1°C 75% 2.3 mph NNW3.7 kmh NNW 3.5 mph5.6 kmh 29.80 in1009.1 mb - 0.00 in0.0 mm 0.00 in0.0 mm
02:30 PM 48.7°F9.3°C 41.1°F5.1°C 75% 2.3 mph NW3.7 kmh NW 3.5 mph5.6 kmh 29.80 in1009.1 mb - 0.00 in0.0 mm 0.00 in0.0 mm
02:20 PM 49.1°F9.5°C 41.2°F5.1°C 74% 1.2 mph N1.9 kmh N 2.3 mph3.7 kmh 29.80 in1009.1 mb - 0.00 in0.0 mm 0.00 in0.0 mm
02:10 PM 49.3°F9.6°C 41.4°F5.2°C 74% 2.3 mph N3.7 kmh N 3.5 mph5.6 kmh 29.80 in1009.1 mb - 0.00 in0.0 mm 0.00 in0.0 mm
02:00 PM 49.6°F9.8°C 41.0°F5.0°C 72% 3.5 mph NNE5.6 kmh NNE 4.6 mph7.4 kmh 29.79 in1008.8 mb - 0.00 in0.0 mm 0.00 in0.0 mm
01:50 PM 50.4°F10.2°C 41.0°F5.0°C 70% 2.3 mph NNW3.7 kmh NNW 3.5 mph5.6 kmh 29.79 in1008.8 mb - 0.00 in0.0 mm 0.00 in0.0 mm
01:40 PM 51.4°F10.8°C 41.9°F5.5°C 70% 3.5 mph N5.6 kmh N 5.8 mph9.3 kmh 29.79 in1008.8 mb - 0.00 in0.0 mm 0.00 in0.0 mm
01:30 PM 51.3°F10.7°C 41.9°F5.5°C 70% 2.3 mph N3.7 kmh N 3.5 mph5.6 kmh 29.78 in1008.5 mb - 0.00 in0.0 mm 0.00 in0.0 mm
01:20 PM 50.4°F10.2°C 41.7°F5.4°C 72% 3.5 mph NNW5.6 kmh NNW 3.5 mph5.6 kmh 29.78 in1008.5 mb - 0.00 in0.0 mm 0.00 in0.0 mm
01:10 PM 51.0°F10.6°C 42.3°F5.7°C 72% 3.5 mph E5.6 kmh E 11.5 mph18.5 kmh 29.78 in1008.5 mb - 0.00 in0.0 mm 0.00 in0.0 mm
01:00 PM 51.4°F10.8°C 42.3°F5.7°C 71% 2.3 mph N3.7 kmh N 3.5 mph5.6 kmh 29.78 in1008.5 mb - 0.00 in0.0 mm 0.00 in0.0 mm
12:50 PM 51.9°F11.1°C 42.8°F6.0°C 71% 3.5 mph NE5.6 kmh NE 8.1 mph13.0 kmh 29.78 in1008.5 mb - 0.00 in0.0 mm 0.00 in0.0 mm
12:40 PM 51.8°F11.0°C 42.6°F5.9°C 71% 1.2 mph NE1.9 kmh NE 3.5 mph5.6 kmh 29.77 in1008.1 mb - 0.00 in0.0 mm 0.00 in0.0 mm
12:30 PM 50.9°F10.5°C 42.2°F5.7°C 72% 1.2 mph NW1.9 kmh NW 3.5 mph5.6 kmh 29.77 in1008.1 mb - 0.00 in0.0 mm 0.00 in0.0 mm
12:20 PM 50.3°F10.2°C 42.3°F5.7°C 74% 2.3 mph NNW3.7 kmh NNW 3.5 mph5.6 kmh 29.77 in1008.1 mb - 0.00 in0.0 mm 0.00 in0.0 mm
12:10 PM 50.1°F10.1°C 42.1°F5.6°C 74% 2.3 mph NE3.7 kmh NE 6.9 mph11.1 kmh 29.78 in1008.5 mb - 0.00 in0.0 mm 0.00 in0.0 mm
12:00 PM 50.3°F10.2°C 42.0°F5.6°C 73% 2.3 mph SW3.7 kmh SW 4.6 mph7.4 kmh 29.78 in1008.5 mb - 0.00 in0.0 mm 0.00 in0.0 mm
11:50 AM 50.1°F10.1°C 42.5°F5.8°C 75% 2.3 mph WNW3.7 kmh WNW 2.3 mph3.7 kmh 29.77 in1008.1 mb - 0.00 in0.0 mm 0.00 in0.0 mm
11:40 AM 49.9°F9.9°C 42.6°F5.9°C 76% 1.2 mph N1.9 kmh N 3.5 mph5.6 kmh 29.77 in1008.1 mb - 0.00 in0.0 mm 0.00 in0.0 mm
11:20 AM 49.4°F9.7°C 42.5°F5.8°C 77% 1.2 mph N1.9 kmh N 3.5 mph5.6 kmh 29.77 in1008.1 mb - 0.00 in0.0 mm 0.00 in0.0 mm
11:10 AM 48.7°F9.3°C 41.8°F5.4°C 77% 2.3 mph N3.7 kmh N 8.1 mph13.0 kmh 29.76 in1007.8 mb - 0.00 in0.0 mm 0.00 in0.0 mm
11:00 AM 48.2°F9.0°C 41.3°F5.2°C 77% 2.3 mph N3.7 kmh N 3.5 mph5.6 kmh 29.77 in1008.1 mb - 0.00 in0.0 mm 0.00 in0.0 mm
10:50 AM 48.1°F8.9°C 41.9°F5.5°C 79% 1.2 mph N1.9 kmh N 3.5 mph5.6 kmh 29.77 in1008.1 mb - 0.00 in0.0 mm 0.00 in0.0 mm
10:40 AM 48.1°F8.9°C 41.6°F5.3°C 78% 1.2 mph N1.9 kmh N 3.5 mph5.6 kmh 29.77 in1008.1 mb - 0.00 in0.0 mm 0.00 in0.0 mm
10:30 AM 48.1°F8.9°C 41.9°F5.5°C 79% 1.2 mph ENE1.9 kmh ENE 2.3 mph3.7 kmh 29.77 in1008.1 mb - 0.00 in0.0 mm 0.00 in0.0 mm
10:20 AM 47.8°F8.8°C 41.2°F5.1°C 78% 1.2 mph NE1.9 kmh NE 2.3 mph3.7 kmh 29.76 in1007.8 mb - 0.00 in0.0 mm 0.00 in0.0 mm
10:10 AM 47.6°F8.7°C 42.0°F5.6°C 81% 3.5 mph NNE5.6 kmh NNE 5.8 mph9.3 kmh 29.76 in1007.8 mb - 0.00 in0.0 mm 0.00 in0.0 mm
10:00 AM 47.2°F8.4°C 41.3°F5.2°C 80% 2.3 mph N3.7 kmh N 3.5 mph5.6 kmh 29.76 in1007.8 mb - 0.00 in0.0 mm 0.00 in0.0 mm
09:50 AM 46.9°F8.3°C 41.1°F5.1°C 80% 2.3 mph NNE3.7 kmh NNE 3.5 mph5.6 kmh 29.75 in1007.5 mb - 0.00 in0.0 mm 0.00 in0.0 mm
09:40 AM 46.6°F8.1°C 40.8°F4.9°C 80% 3.5 mph NNE5.6 kmh NNE 3.5 mph5.6 kmh 29.74 in1007.1 mb - 0.00 in0.0 mm 0.00 in0.0 mm
09:30 AM 46.3°F7.9°C 40.8°F4.9°C 81% 3.5 mph NW5.6 kmh NW 3.5 mph5.6 kmh 29.73 in1006.8 mb - 0.00 in0.0 mm 0.00 in0.0 mm
09:20 AM 46.0°F7.8°C 40.8°F4.9°C 82% 1.2 mph E1.9 kmh E 2.3 mph3.7 kmh 29.74 in1007.1 mb - 0.00 in0.0 mm 0.00 in0.0 mm
09:10 AM 45.9°F7.7°C 40.7°F4.8°C 82% 3.5 mph N5.6 kmh N 10.4 mph16.7 kmh 29.73 in1006.8 mb - 0.00 in0.0 mm 0.00 in0.0 mm
09:00 AM 45.8°F7.7°C 40.6°F4.8°C 82% 3.5 mph N5.6 kmh N 3.5 mph5.6 kmh 29.73 in1006.8 mb - 0.00 in0.0 mm 0.00 in0.0 mm
08:50 AM 45.7°F7.6°C 40.8°F4.9°C 83% 3.5 mph NNE5.6 kmh NNE 3.5 mph5.6 kmh 29.72 in1006.4 mb - 0.00 in0.0 mm 0.00 in0.0 mm
08:40 AM 45.6°F7.6°C 40.4°F4.7°C 82% 2.3 mph 3.7 kmh 3.5 mph5.6 kmh 29.72 in1006.4 mb - 0.00 in0.0 mm 0.00 in0.0 mm
08:30 AM 45.5°F7.5°C 40.6°F4.8°C 83% 1.2 mph NNW1.9 kmh NNW 3.5 mph5.6 kmh 29.71 in1006.1 mb - 0.00 in0.0 mm 0.00 in0.0 mm
08:20 AM 45.5°F7.5°C 40.9°F4.9°C 84% 2.3 mph NNE3.7 kmh NNE 3.5 mph5.6 kmh 29.71 in1006.1 mb - 0.00 in0.0 mm 0.00 in0.0 mm
08:10 AM 45.5°F7.5°C 40.9°F4.9°C 84% 1.2 mph N1.9 kmh N 3.5 mph5.6 kmh 29.71 in1006.1 mb - 0.00 in0.0 mm 0.00 in0.0 mm
08:00 AM 45.5°F7.5°C 41.0°F5.0°C 84% 3.5 mph NNE5.6 kmh NNE 3.5 mph5.6 kmh 29.70 in1005.8 mb - 0.00 in0.0 mm 0.00 in0.0 mm
07:50 AM 45.5°F7.5°C 41.0°F5.0°C 84% 1.2 mph NE1.9 kmh NE 2.3 mph3.7 kmh 29.69 in1005.4 mb - 0.00 in0.0 mm 0.00 in0.0 mm
07:40 AM 45.5°F7.5°C 40.6°F4.8°C 83% 1.2 mph NNE1.9 kmh NNE 6.9 mph11.1 kmh 29.68 in1005.1 mb - 0.00 in0.0 mm 0.00 in0.0 mm
07:30 AM 45.4°F7.4°C 40.5°F4.7°C 83% 2.3 mph NNE3.7 kmh NNE 3.5 mph5.6 kmh 29.68 in1005.1 mb - 0.00 in0.0 mm 0.00 in0.0 mm
07:20 AM 45.4°F7.4°C 40.8°F4.9°C 84% 2.3 mph N3.7 kmh N 3.5 mph5.6 kmh 29.67 in1004.7 mb - 0.00 in0.0 mm 0.00 in0.0 mm
07:10 AM 45.3°F7.4°C 41.1°F5.1°C 85% 2.3 mph NE3.7 kmh NE 5.8 mph9.3 kmh 29.66 in1004.4 mb - 0.00 in0.0 mm 0.00 in0.0 mm
07:00 AM 45.2°F7.3°C 41.0°F5.0°C 85% 2.3 mph N3.7 kmh N 3.5 mph5.6 kmh 29.66 in1004.4 mb - 0.00 in0.0 mm 0.00 in0.0 mm
06:50 AM 45.3°F7.4°C 40.7°F4.8°C 84% 1.2 mph W1.9 kmh W 3.5 mph5.6 kmh 29.65 in1004.1 mb - 0.00 in0.0 mm 0.00 in0.0 mm
06:40 AM 45.3°F7.4°C 40.4°F4.7°C 83% 2.3 mph NE3.7 kmh NE 3.5 mph5.6 kmh 29.65 in1004.1 mb - 0.00 in0.0 mm 0.00 in0.0 mm
06:30 AM 45.5°F7.5°C 40.6°F4.8°C 83% 2.3 mph W3.7 kmh W 3.5 mph5.6 kmh 29.64 in1003.7 mb - 0.00 in0.0 mm 0.00 in0.0 mm
06:20 AM 45.6°F7.6°C 40.7°F4.8°C 83% 3.5 mph NNE5.6 kmh NNE 3.5 mph5.6 kmh 29.64 in1003.7 mb - 0.00 in0.0 mm 0.00 in0.0 mm
06:10 AM 45.5°F7.5°C 40.6°F4.8°C 83% 2.3 mph NE3.7 kmh NE 3.5 mph5.6 kmh 29.63 in1003.4 mb - 0.00 in0.0 mm 0.00 in0.0 mm
06:00 AM 45.5°F7.5°C 40.9°F4.9°C 84% 1.2 mph N1.9 kmh N 3.5 mph5.6 kmh 29.62 in1003.0 mb - 0.00 in0.0 mm 0.00 in0.0 mm
05:50 AM 45.6°F7.6°C 41.0°F5.0°C 84% 2.3 mph NE3.7 kmh NE 3.5 mph5.6 kmh 29.62 in1003.0 mb - 0.00 in0.0 mm 0.00 in0.0 mm
05:40 AM 45.7°F7.6°C 41.1°F5.1°C 84% 2.3 mph NNW3.7 kmh NNW 4.6 mph7.4 kmh 29.61 in1002.7 mb - 0.00 in0.0 mm 0.00 in0.0 mm
05:30 AM 45.8°F7.7°C 40.9°F4.9°C 83% 2.3 mph N3.7 kmh N 4.6 mph7.4 kmh 29.61 in1002.7 mb - 0.00 in0.0 mm 0.00 in0.0 mm
05:20 AM 45.9°F7.7°C 41.0°F5.0°C 83% 3.5 mph NNE5.6 kmh NNE 3.5 mph5.6 kmh 29.61 in1002.7 mb - 0.00 in0.0 mm 0.00 in0.0 mm
05:10 AM 46.0°F7.8°C 41.1°F5.1°C 83% 2.3 mph N3.7 kmh N 5.8 mph9.3 kmh 29.60 in1002.4 mb - 0.00 in0.0 mm 0.00 in0.0 mm
05:00 AM 46.1°F7.8°C 41.2°F5.1°C 83% 1.2 mph NNE1.9 kmh NNE 3.5 mph5.6 kmh 29.60 in1002.4 mb - 0.00 in0.0 mm 0.00 in0.0 mm
04:50 AM 46.1°F7.8°C 41.2°F5.1°C 83% 3.5 mph NE5.6 kmh NE 4.6 mph7.4 kmh 29.59 in1002.0 mb - 0.00 in0.0 mm 0.00 in0.0 mm
04:40 AM 46.1°F7.8°C 41.2°F5.1°C 83% 3.5 mph NNE5.6 kmh NNE 3.5 mph5.6 kmh 29.59 in1002.0 mb - 0.00 in0.0 mm 0.00 in0.0 mm
04:30 AM 46.1°F7.8°C 41.5°F5.3°C 84% 2.3 mph NNE3.7 kmh NNE 4.6 mph7.4 kmh 29.59 in1002.0 mb - 0.00 in0.0 mm 0.00 in0.0 mm
04:20 AM 46.2°F7.9°C 41.6°F5.3°C 84% 3.5 mph NNE5.6 kmh NNE 4.6 mph7.4 kmh 29.58 in1001.7 mb - 0.00 in0.0 mm 0.00 in0.0 mm
04:10 AM 46.4°F8.0°C 41.8°F5.4°C 84% 4.6 mph NNW7.4 kmh NNW 11.5 mph18.5 kmh 29.59 in1002.0 mb - 0.00 in0.0 mm 0.00 in0.0 mm
04:00 AM 46.5°F8.1°C 41.9°F5.5°C 84% 3.5 mph N5.6 kmh N 3.5 mph5.6 kmh 29.58 in1001.7 mb - 0.00 in0.0 mm 0.00 in0.0 mm
03:50 AM 46.5°F8.1°C 42.2°F5.7°C 85% 2.3 mph N3.7 kmh N 3.5 mph5.6 kmh 29.58 in1001.7 mb - 0.00 in0.0 mm 0.00 in0.0 mm
03:40 AM 46.5°F8.1°C 42.2°F5.7°C 85% 2.3 mph NE3.7 kmh NE 9.2 mph14.8 kmh 29.57 in1001.4 mb - 0.00 in0.0 mm 0.00 in0.0 mm
03:30 AM 46.5°F8.1°C 42.3°F5.7°C 85% 2.3 mph NNE3.7 kmh NNE 4.6 mph7.4 kmh 29.56 in1001.0 mb - 0.00 in0.0 mm 0.00 in0.0 mm
03:20 AM 46.6°F8.1°C 42.3°F5.7°C 85% 2.3 mph NW3.7 kmh NW 3.5 mph5.6 kmh 29.56 in1001.0 mb - 0.00 in0.0 mm 0.00 in0.0 mm
03:10 AM 46.6°F8.1°C 42.3°F5.7°C 85% 2.3 mph NNE3.7 kmh NNE 3.5 mph5.6 kmh 29.56 in1001.0 mb - 0.00 in0.0 mm 0.00 in0.0 mm
03:00 AM 46.6°F8.1°C 42.3°F5.7°C 85% 3.5 mph NNE5.6 kmh NNE 4.6 mph7.4 kmh 29.56 in1001.0 mb - 0.00 in0.0 mm 0.00 in0.0 mm
02:50 AM 46.8°F8.2°C 42.8°F6.0°C 86% 3.5 mph NNE5.6 kmh NNE 5.8 mph9.3 kmh 29.56 in1001.0 mb - 0.00 in0.0 mm 0.00 in0.0 mm
02:40 AM 46.8°F8.2°C 42.8°F6.0°C 86% 2.3 mph WNW3.7 kmh WNW 3.5 mph5.6 kmh 29.55 in1000.7 mb - 0.00 in0.0 mm 0.00 in0.0 mm
02:30 AM 46.8°F8.2°C 42.8°F6.0°C 86% 2.3 mph N3.7 kmh N 3.5 mph5.6 kmh 29.55 in1000.7 mb - 0.00 in0.0 mm 0.00 in0.0 mm
02:20 AM 46.8°F8.2°C 42.8°F6.0°C 86% 1.2 mph NNE1.9 kmh NNE 3.5 mph5.6 kmh 29.56 in1001.0 mb - 0.00 in0.0 mm 0.00 in0.0 mm
02:10 AM 46.7°F8.2°C 43.0°F6.1°C 87% 2.3 mph N3.7 kmh N 3.5 mph5.6 kmh 29.55 in1000.7 mb - 0.00 in0.0 mm 0.00 in0.0 mm
02:00 AM 46.7°F8.2°C 43.3°F6.3°C 88% 1.2 mph NE1.9 kmh NE 3.5 mph5.6 kmh 29.55 in1000.7 mb - 0.00 in0.0 mm 0.00 in0.0 mm
01:50 AM 46.8°F8.2°C 43.7°F6.5°C 89% 2.3 mph NNW3.7 kmh NNW 3.5 mph5.6 kmh 29.54 in1000.3 mb - 0.00 in0.0 mm 0.00 in0.0 mm
01:40 AM 46.9°F8.3°C 43.5°F6.4°C 88% 3.5 mph NNE5.6 kmh NNE 3.5 mph5.6 kmh 29.54 in1000.3 mb - 0.00 in0.0 mm 0.00 in0.0 mm
01:30 AM 47.0°F8.3°C 43.3°F6.3°C 87% 3.5 mph N5.6 kmh N 3.5 mph5.6 kmh 29.53 in1000.0 mb - 0.00 in0.0 mm 0.00 in0.0 mm
01:20 AM 47.0°F8.3°C 43.0°F6.1°C 86% 2.3 mph WSW3.7 kmh WSW 3.5 mph5.6 kmh 29.53 in1000.0 mb - 0.00 in0.0 mm 0.00 in0.0 mm
01:10 AM 47.0°F8.3°C 43.3°F6.3°C 87% 2.3 mph N3.7 kmh N 3.5 mph5.6 kmh 29.53 in1000.0 mb - 0.00 in0.0 mm 0.00 in0.0 mm
01:00 AM 47.0°F8.3°C 43.3°F6.3°C 87% Calm Calm 2.3 mph3.7 kmh 29.52 in999.7 mb - 0.00 in0.0 mm 0.00 in0.0 mm
12:50 AM 47.0°F8.3°C 43.3°F6.3°C 87% 2.3 mph NE3.7 kmh NE 3.5 mph5.6 kmh 29.52 in999.7 mb - 0.00 in0.0 mm 0.00 in0.0 mm
12:40 AM 47.0°F8.3°C 43.0°F6.1°C 86% 1.2 mph NNW1.9 kmh NNW 2.3 mph3.7 kmh 29.52 in999.7 mb - 0.00 in0.0 mm 0.00 in0.0 mm
12:30 AM 46.9°F8.3°C 43.2°F6.2°C 87% 2.3 mph NE3.7 kmh NE 3.5 mph5.6 kmh 29.51 in999.3 mb - 0.00 in0.0 mm 0.00 in0.0 mm
12:20 AM 47.0°F8.3°C 43.6°F6.4°C 88% 2.3 mph NNE3.7 kmh NNE 3.5 mph5.6 kmh 29.50 in999.0 mb - 0.00 in0.0 mm 0.00 in0.0 mm
12:10 AM 47.0°F8.3°C 43.3°F6.3°C 87% 1.2 mph N1.9 kmh N 4.6 mph7.4 kmh 29.50 in999.0 mb - 0.00 in0.0 mm 0.00 in0.0 mm
12:00 AM 47.0°F8.3°C 43.3°F6.3°C 87% 2.3 mph N3.7 kmh N 8.1 mph13.0 kmh 29.48 in998.3 mb - 0.00 in0.0 mm 0.00 in0.0 mm